Lady Louisa — PD7936 — position and weather

sailwx.info

Track history (hours):
 
Tides and Currents Weather Stations Pressure Air Temp Water Temp Dewpoint Dewpoint Depression Visibility Wind Speed Wind Dir Waves Ship Positions

Lady Louisa

Last reported at 2014-Jul-25 08:33 UTC. Time now 2014-Aug-01 05:51 UTC.
Position N 51°11' E 005°55'.

Length 12 m.

Type: Sailing vessel. MMSI: 244110067.

Date/timePositionNaut miles runAvg speedWind from/ knotsBaromVisibWave heightAir tempDewpointWater temp
2014-Jul-25 08:33N 51°11' E 005°55'6 6.2
2014-Jul-25 07:33N 51°16' E 006°00'  
2014-Jul-22 06:30N 51°48' E 005°23'2 2.0
2014-Jul-22 05:33N 51°50' E 005°23'6 4.9
2014-Jul-22 04:18N 51°56' E 005°24'3 4.0
2014-Jul-22 03:33N 51°58' E 005°21'0 0.0
2014-Jul-22 02:27N 51°58' E 005°21'0 0.0
2014-Jul-22 01:27N 51°58' E 005°21'0 0.0
2014-Jul-22 00:30N 51°58' E 005°21'0 0.0
2014-Jul-21 23:15N 51°58' E 005°21'0 0.0
2014-Jul-21 22:33N 51°58' E 005°21'0 0.0
2014-Jul-21 21:24N 51°58' E 005°21'0 0.0
2014-Jul-21 19:51N 51°58' E 005°21'0 0.0
2014-Jul-21 19:21N 51°58' E 005°21'0 0.0
2014-Jul-21 18:27N 51°58' E 005°21'0 0.0
2014-Jul-21 17:24N 51°58' E 005°21'0 0.0
2014-Jul-21 16:24N 51°58' E 005°21'0 0.0
2014-Jul-21 15:24N 51°58' E 005°21'1 1.3
2014-Jul-21 14:33N 51°58' E 005°19'3 3.0
2014-Jul-21 13:31N 51°59' E 005°15'7 7.1
2014-Jul-21 12:33N 52°04' E 005°06'13 6.5
2014-Jul-21 10:30N 52°17' E 005°01'  
2014-Jul-17 18:05N 52°16' E 005°02'3 0.8
2014-Jul-17 14:06N 52°19' E 005°03'2 3.3
2014-Jul-17 13:29N 52°21' E 005°05'  
Track history (hours):
 
Tides and Currents Weather Stations Pressure Air Temp Water Temp Dewpoint Dewpoint Depression Visibility Wind Speed Wind Dir Waves Ship Positions

Lady Louisa

Last reported at 2014-Jul-25 08:33 UTC. Time now 2014-Aug-01 05:51 UTC.
Position N 51°11' E 005°55'.

Length 12 m.

Type: Sailing vessel. MMSI: 244110067.

Date/timePositionNaut miles runAvg speedWind from/ knotsBaromVisibWave heightAir tempDewpointWater temp
2014-Jul-25 08:33N 51°11' E 005°55'6 6.2
2014-Jul-25 07:33N 51°16' E 006°00'  
2014-Jul-22 06:30N 51°48' E 005°23'2 2.0
2014-Jul-22 05:33N 51°50' E 005°23'6 4.9
2014-Jul-22 04:18N 51°56' E 005°24'3 4.0
2014-Jul-22 03:33N 51°58' E 005°21'0 0.0
2014-Jul-22 02:27N 51°58' E 005°21'0 0.0
2014-Jul-22 01:27N 51°58' E 005°21'0 0.0
2014-Jul-22 00:30N 51°58' E 005°21'0 0.0
2014-Jul-21 23:15N 51°58' E 005°21'0 0.0
2014-Jul-21 22:33N 51°58' E 005°21'0 0.0
2014-Jul-21 21:24N 51°58' E 005°21'0 0.0
2014-Jul-21 19:51N 51°58' E 005°21'0 0.0
2014-Jul-21 19:21N 51°58' E 005°21'0 0.0
2014-Jul-21 18:27N 51°58' E 005°21'0 0.0
2014-Jul-21 17:24N 51°58' E 005°21'0 0.0
2014-Jul-21 16:24N 51°58' E 005°21'0 0.0
2014-Jul-21 15:24N 51°58' E 005°21'1 1.3
2014-Jul-21 14:33N 51°58' E 005°19'3 3.0
2014-Jul-21 13:31N 51°59' E 005°15'7 7.1
2014-Jul-21 12:33N 52°04' E 005°06'13 6.5
2014-Jul-21 10:30N 52°17' E 005°01'  
2014-Jul-17 18:05N 52°16' E 005°02'3 0.8
2014-Jul-17 14:06N 52°19' E 005°03'2 3.3
2014-Jul-17 13:29N 52°21' E 005°05'  

Dump ship's entire track history